createdAt,value
2022-08-21T00:00:20.861Z,24.35
2022-08-21T00:03:08.315Z,24.31
2022-08-21T00:05:54.409Z,24.27
2022-08-21T00:08:40.330Z,24.25
2022-08-21T00:11:28.008Z,24.22
2022-08-21T00:14:14.691Z,24.20
2022-08-21T00:17:00.773Z,24.16
2022-08-21T00:19:46.239Z,24.15
2022-08-21T00:22:31.491Z,24.13
2022-08-21T00:25:18.017Z,24.11
2022-08-21T00:28:07.478Z,24.07
2022-08-21T00:30:52.712Z,24.04
2022-08-21T00:33:38.070Z,24.04
2022-08-21T00:36:23.349Z,24.00
2022-08-21T00:39:09.479Z,23.99
2022-08-21T00:41:54.953Z,23.98
2022-08-21T00:44:40.373Z,23.97
2022-08-21T00:47:26.147Z,23.97
2022-08-21T00:50:15.042Z,23.95
2022-08-21T00:53:08.780Z,23.93
2022-08-21T00:55:56.622Z,23.94
2022-08-21T00:58:43.839Z,23.92
2022-08-21T01:01:29.230Z,23.90
2022-08-21T01:04:14.432Z,23.89
2022-08-21T01:06:59.879Z,23.86
2022-08-21T01:09:47.662Z,23.85
2022-08-21T01:12:34.431Z,23.86
2022-08-21T01:15:22.707Z,23.84
2022-08-21T01:18:11.962Z,23.84
2022-08-21T01:21:16.534Z,23.81
2022-08-21T01:24:01.738Z,23.82
2022-08-21T01:26:47.342Z,23.82
2022-08-21T01:29:48.685Z,23.81
2022-08-21T01:32:34.609Z,23.80
2022-08-21T01:35:21.323Z,23.80
2022-08-21T01:38:06.721Z,23.81
2022-08-21T01:40:51.987Z,23.80
2022-08-21T01:43:39.624Z,23.79
2022-08-21T01:46:25.712Z,23.75
2022-08-21T01:49:11.405Z,23.76
2022-08-21T01:51:56.675Z,23.73
2022-08-21T01:54:42.867Z,23.73
2022-08-21T01:57:28.405Z,23.75
2022-08-21T02:00:16.593Z,23.73
2022-08-21T02:03:01.912Z,23.73
2022-08-21T02:05:47.211Z,23.72
2022-08-21T02:08:32.854Z,23.71
2022-08-21T02:11:18.718Z,23.72
2022-08-21T02:14:04.548Z,23.72
2022-08-21T02:16:50.077Z,23.74
2022-08-21T02:19:39.548Z,23.75
2022-08-21T02:22:26.012Z,23.71
2022-08-21T02:25:11.642Z,23.72
2022-08-21T02:27:57.599Z,23.72
2022-08-21T02:30:46.282Z,23.70
2022-08-21T02:33:31.734Z,23.73
2022-08-21T02:36:16.977Z,23.71
2022-08-21T02:39:02.324Z,23.72
2022-08-21T02:41:47.694Z,23.70
2022-08-21T02:44:34.584Z,23.69
2022-08-21T02:47:20.242Z,23.69
2022-08-21T02:50:06.734Z,23.69
2022-08-21T02:52:55.115Z,23.67
2022-08-21T02:55:40.809Z,23.65
2022-08-21T02:58:32.240Z,23.66
2022-08-21T03:01:18.359Z,23.65
2022-08-21T03:04:03.663Z,23.64
2022-08-21T03:06:49.387Z,23.63
2022-08-21T03:09:34.575Z,23.63
2022-08-21T03:12:19.817Z,23.62
2022-08-21T03:15:10.466Z,23.64
2022-08-21T03:17:56.339Z,23.63
2022-08-21T03:20:43.135Z,23.62
2022-08-21T03:23:32.596Z,23.62
2022-08-21T03:26:18.915Z,23.60
2022-08-21T03:29:06.733Z,23.58
2022-08-21T03:31:54.522Z,23.57
2022-08-21T03:34:40.224Z,23.56
2022-08-21T03:37:25.503Z,23.54
2022-08-21T03:40:12.584Z,23.53
2022-08-21T03:42:57.796Z,23.53
2022-08-21T03:45:42.947Z,23.51
2022-08-21T03:48:28.839Z,23.51
2022-08-21T03:51:14.122Z,23.50
2022-08-21T03:53:59.376Z,23.49
2022-08-21T03:56:44.788Z,23.47
2022-08-21T03:59:30.185Z,23.47
2022-08-21T04:02:19.567Z,23.53
2022-08-21T04:05:05.893Z,23.53
2022-08-21T04:07:51.006Z,23.51
2022-08-21T04:10:39.011Z,23.53
2022-08-21T04:13:24.555Z,23.53
2022-08-21T04:16:09.958Z,23.52
2022-08-21T04:18:55.275Z,23.53
2022-08-21T04:21:41.359Z,23.53
2022-08-21T04:24:29.996Z,23.52
2022-08-21T04:27:15.430Z,23.51
2022-08-21T04:30:01.938Z,23.50
2022-08-21T04:32:50.350Z,23.50
2022-08-21T04:35:36.620Z,23.51
2022-08-21T04:38:22.620Z,23.51
2022-08-21T04:41:08.216Z,23.49
2022-08-21T04:43:53.639Z,23.48
2022-08-21T04:46:38.928Z,23.49
2022-08-21T04:49:24.247Z,23.48
2022-08-21T04:52:09.893Z,23.47
2022-08-21T04:54:55.394Z,23.48
2022-08-21T04:57:48.937Z,23.48
2022-08-21T05:00:34.871Z,23.48
2022-08-21T05:03:20.125Z,23.46
2022-08-21T05:06:09.612Z,23.47
2022-08-21T05:09:02.107Z,23.48
2022-08-21T05:11:48.105Z,23.47
2022-08-21T05:14:34.037Z,23.47
2022-08-21T05:17:19.623Z,23.47
2022-08-21T05:20:05.687Z,23.45
2022-08-21T05:22:51.254Z,23.44
2022-08-21T05:25:36.891Z,23.44
2022-08-21T05:28:22.384Z,23.45
2022-08-21T05:31:07.671Z,23.45
2022-08-21T05:33:53.188Z,23.45
2022-08-21T05:36:41.480Z,23.44
2022-08-21T05:39:27.063Z,23.42
2022-08-21T05:42:32.628Z,23.40
2022-08-21T05:45:18.374Z,23.38
2022-08-21T05:48:25.199Z,23.38
2022-08-21T05:51:15.324Z,23.39
2022-08-21T05:54:00.907Z,23.41
2022-08-21T05:56:46.257Z,23.41
2022-08-21T05:59:31.626Z,23.44
2022-08-21T06:02:19.350Z,23.48
2022-08-21T06:05:04.780Z,23.49
2022-08-21T06:07:50.468Z,23.50
2022-08-21T06:10:35.844Z,23.49
2022-08-21T06:13:21.930Z,23.51
2022-08-21T06:16:11.161Z,23.53
2022-08-21T06:19:03.109Z,23.54
2022-08-21T06:21:49.097Z,23.57
2022-08-21T06:24:34.872Z,23.59
2022-08-21T06:27:24.675Z,23.63
2022-08-21T06:30:12.453Z,23.69
2022-08-21T06:32:58.635Z,23.71
2022-08-21T06:35:44.266Z,23.76
2022-08-21T06:38:29.671Z,23.77
2022-08-21T06:41:16.948Z,23.78
2022-08-21T06:44:02.905Z,23.78
2022-08-21T06:46:48.603Z,23.82
2022-08-21T06:49:34.098Z,23.82
2022-08-21T06:52:19.731Z,23.83
2022-08-21T06:55:07.712Z,23.87
2022-08-21T06:57:53.564Z,23.86
2022-08-21T07:00:46.015Z,23.85
2022-08-21T07:03:34.938Z,23.86
2022-08-21T07:06:20.889Z,23.89
2022-08-21T07:09:06.130Z,23.91
2022-08-21T07:11:54.429Z,23.91
2022-08-21T07:14:40.207Z,23.91
2022-08-21T07:17:25.430Z,23.91
2022-08-21T07:20:10.814Z,23.91
2022-08-21T07:23:02.729Z,23.92
2022-08-21T07:25:48.026Z,23.91
2022-08-21T07:28:34.050Z,23.92
2022-08-21T07:31:22.361Z,23.93
2022-08-21T07:34:09.344Z,23.96
2022-08-21T07:36:55.256Z,23.96
2022-08-21T07:39:40.890Z,23.96
2022-08-21T07:42:26.513Z,23.98
2022-08-21T07:45:13.362Z,23.98
2022-08-21T07:47:58.785Z,24.01
2022-08-21T07:50:44.183Z,24.01
2022-08-21T07:53:29.851Z,24.02
2022-08-21T07:56:15.166Z,24.01
2022-08-21T07:59:00.689Z,24.03
2022-08-21T08:01:46.237Z,24.05
2022-08-21T08:04:31.917Z,24.05
2022-08-21T08:07:17.695Z,24.03
2022-08-21T08:10:05.357Z,24.04
2022-08-21T08:12:52.303Z,24.06
2022-08-21T08:15:38.083Z,24.07
2022-08-21T08:18:23.412Z,24.06
2022-08-21T08:21:10.196Z,24.07
2022-08-21T08:23:56.207Z,24.07
2022-08-21T08:26:41.794Z,24.07
2022-08-21T08:29:27.413Z,24.07
2022-08-21T08:32:15.469Z,24.08
2022-08-21T08:35:00.814Z,24.07
2022-08-21T08:37:47.361Z,24.06
2022-08-21T08:40:52.971Z,24.06
2022-08-21T08:43:38.311Z,24.05
2022-08-21T08:46:47.910Z,24.02
2022-08-21T08:49:41.298Z,24.01
2022-08-21T08:52:43.620Z,24.03
2022-08-21T08:55:41.167Z,24.03
2022-08-21T08:58:31.325Z,24.03
2022-08-21T09:01:19.860Z,24.03
2022-08-21T09:04:05.660Z,24.04
2022-08-21T09:06:58.750Z,24.03
2022-08-21T09:10:23.987Z,24.03
2022-08-21T09:13:20.226Z,24.01
2022-08-21T09:16:10.197Z,24.01
2022-08-21T09:19:09.341Z,24.03
2022-08-21T09:22:11.083Z,24.06
2022-08-21T09:25:20.973Z,24.05
2022-08-21T09:28:12.518Z,24.05
2022-08-21T09:31:03.641Z,24.07
2022-08-21T09:33:49.076Z,24.05
2022-08-21T09:36:46.545Z,24.06
2022-08-21T09:39:40.289Z,24.09
2022-08-21T09:42:36.002Z,24.08
2022-08-21T09:45:21.476Z,24.09
2022-08-21T09:48:26.961Z,24.09
2022-08-21T09:51:16.959Z,24.10
2022-08-21T09:54:08.903Z,24.11
2022-08-21T09:57:21.085Z,24.12
2022-08-21T10:00:31.936Z,24.12
2022-08-21T10:03:21.006Z,24.10
2022-08-21T10:06:11.307Z,24.10
2022-08-21T10:09:21.618Z,24.10
2022-08-21T10:12:29.941Z,24.11
2022-08-21T10:15:47.882Z,24.11
2022-08-21T10:18:51.116Z,24.06
2022-08-21T10:22:07.298Z,24.07
2022-08-21T10:25:00.183Z,24.07
2022-08-21T10:28:00.952Z,24.06
2022-08-21T10:31:08.604Z,24.07
2022-08-21T10:34:09.611Z,24.06
2022-08-21T10:37:15.079Z,24.05
2022-08-21T10:40:06.867Z,24.05
2022-08-21T10:43:22.030Z,24.05
2022-08-21T10:46:43.511Z,24.01
2022-08-21T10:49:54.362Z,24.02
2022-08-21T10:52:51.664Z,24.04
2022-08-21T10:55:57.583Z,24.05
2022-08-21T10:58:57.562Z,24.01
2022-08-21T11:02:05.082Z,24.01
2022-08-21T11:05:06.958Z,23.99
2022-08-21T11:08:04.287Z,23.98
2022-08-21T11:11:08.570Z,24.01
2022-08-21T11:13:59.906Z,24.00
2022-08-21T11:16:55.140Z,24.00
2022-08-21T11:19:49.005Z,24.02
2022-08-21T11:23:03.810Z,24.00
2022-08-21T11:25:59.286Z,24.00
2022-08-21T11:29:01.473Z,23.99
2022-08-21T11:32:01.727Z,23.98
2022-08-21T11:35:03.978Z,24.00
2022-08-21T11:37:55.328Z,23.99
2022-08-21T11:41:14.191Z,23.98
2022-08-21T11:44:08.614Z,23.96
2022-08-21T11:47:12.767Z,23.95
2022-08-21T11:50:29.699Z,23.92
2022-08-21T11:53:46.868Z,23.89
2022-08-21T11:56:40.053Z,23.86
2022-08-21T11:59:40.746Z,23.84
2022-08-21T12:02:32.994Z,23.82
2022-08-21T12:05:34.121Z,23.81
2022-08-21T12:08:31.534Z,23.80
2022-08-21T12:11:16.698Z,23.79
2022-08-21T12:14:08.397Z,23.77
2022-08-21T12:17:06.863Z,23.73
2022-08-21T12:20:15.571Z,23.73
2022-08-21T12:23:13.367Z,23.71
2022-08-21T12:26:33.145Z,23.66
2022-08-21T12:29:33.617Z,23.65
2022-08-21T12:32:18.762Z,23.64
2022-08-21T12:35:18.591Z,23.63
2022-08-21T12:38:19.051Z,23.62
2022-08-21T12:41:11.834Z,23.60
2022-08-21T12:44:40.547Z,23.59
2022-08-21T12:47:37.713Z,23.57
2022-08-21T12:50:45.353Z,23.56
2022-08-21T12:53:58.409Z,23.55
2022-08-21T12:56:43.580Z,23.56
2022-08-21T12:59:29.444Z,23.56
2022-08-21T13:02:21.373Z,23.59
2022-08-21T13:05:10.692Z,23.57
2022-08-21T13:07:56.782Z,23.55
2022-08-21T13:10:42.553Z,23.52
2022-08-21T13:13:29.350Z,23.53
2022-08-21T13:16:21.760Z,23.53
2022-08-21T13:19:09.564Z,23.51
2022-08-21T13:21:55.106Z,23.50
2022-08-21T13:24:43.387Z,23.49
2022-08-21T13:27:31.391Z,23.47
2022-08-21T13:30:22.208Z,23.46
2022-08-21T13:33:12.883Z,23.46
2022-08-21T13:36:01.441Z,23.45
2022-08-21T13:38:47.342Z,23.46
2022-08-21T13:41:37.730Z,23.44
2022-08-21T13:44:33.917Z,23.43
2022-08-21T13:47:19.602Z,23.44
2022-08-21T13:50:06.490Z,23.43
2022-08-21T13:53:01.840Z,23.47
2022-08-21T13:55:47.128Z,23.44
2022-08-21T13:58:52.971Z,23.41
2022-08-21T14:01:50.058Z,23.40
2022-08-21T14:04:59.976Z,23.39
2022-08-21T14:07:45.650Z,23.37
2022-08-21T14:10:32.198Z,23.39
2022-08-21T14:13:45.697Z,23.36
2022-08-21T14:16:44.651Z,23.37
2022-08-21T14:19:42.672Z,23.38
2022-08-21T14:22:49.727Z,23.34
2022-08-21T14:25:44.016Z,23.33
2022-08-21T14:28:34.713Z,23.34
2022-08-21T14:31:22.184Z,23.32
2022-08-21T14:34:19.360Z,23.34
2022-08-21T14:37:05.487Z,23.32
2022-08-21T14:39:51.257Z,23.33
2022-08-21T14:42:36.801Z,23.30
2022-08-21T14:45:31.663Z,23.32
2022-08-21T14:48:17.514Z,23.31
2022-08-21T14:51:03.026Z,23.29
2022-08-21T14:53:49.054Z,23.29
2022-08-21T14:56:35.923Z,23.28
2022-08-21T14:59:21.939Z,23.27
2022-08-21T15:02:09.080Z,23.26
2022-08-21T15:04:54.418Z,23.26
2022-08-21T15:07:39.718Z,23.27
2022-08-21T15:10:25.079Z,23.25
2022-08-21T15:13:10.574Z,23.23
2022-08-21T15:15:57.057Z,23.23
2022-08-21T15:18:42.933Z,23.21
2022-08-21T15:21:28.041Z,23.20
2022-08-21T15:24:13.304Z,23.22
2022-08-21T15:27:01.170Z,23.23
2022-08-21T15:29:46.766Z,23.24
2022-08-21T15:32:32.309Z,23.24
2022-08-21T15:35:18.107Z,23.28
2022-08-21T15:38:03.928Z,23.34
2022-08-21T15:40:51.929Z,23.34
2022-08-21T15:43:49.672Z,23.39
2022-08-21T15:46:34.898Z,23.40
2022-08-21T15:49:20.146Z,23.42
2022-08-21T15:52:05.598Z,23.47
2022-08-21T15:54:52.329Z,23.49
2022-08-21T15:57:40.432Z,23.50
2022-08-21T16:00:26.654Z,23.52
2022-08-21T16:03:16.803Z,23.51
2022-08-21T16:06:02.316Z,23.54
2022-08-21T16:08:47.657Z,23.54
2022-08-21T16:11:33.452Z,23.55
2022-08-21T16:14:19.118Z,23.57
2022-08-21T16:17:08.471Z,23.57
2022-08-21T16:19:54.072Z,23.57
2022-08-21T16:22:41.264Z,23.55
2022-08-21T16:25:30.474Z,23.56
2022-08-21T16:28:21.061Z,23.55
2022-08-21T16:31:06.392Z,23.57
2022-08-21T16:33:57.968Z,23.56
2022-08-21T16:36:43.543Z,23.57
2022-08-21T16:39:29.084Z,23.58
2022-08-21T16:42:20.390Z,23.58
2022-08-21T16:45:11.132Z,23.60
2022-08-21T16:47:56.297Z,23.60
2022-08-21T16:50:41.614Z,23.61
2022-08-21T16:53:26.961Z,23.61
2022-08-21T16:56:14.871Z,23.62
2022-08-21T16:59:00.391Z,23.63
2022-08-21T17:01:46.256Z,23.64
2022-08-21T17:04:32.054Z,23.65
2022-08-21T17:07:17.143Z,23.66
2022-08-21T17:10:02.330Z,23.65
2022-08-21T17:12:55.926Z,23.65
2022-08-21T17:15:42.201Z,23.67
2022-08-21T17:18:28.033Z,23.68
2022-08-21T17:21:18.648Z,23.66
2022-08-21T17:24:04.722Z,23.69
2022-08-21T17:26:50.426Z,23.68
2022-08-21T17:29:38.625Z,23.67
2022-08-21T17:32:25.390Z,23.65
2022-08-21T17:35:11.998Z,23.66
2022-08-21T17:37:57.967Z,23.67
2022-08-21T17:40:43.477Z,23.69
2022-08-21T17:43:28.912Z,23.67
2022-08-21T17:46:19.153Z,23.64
2022-08-21T17:49:06.699Z,23.65
2022-08-21T17:51:52.810Z,23.64
2022-08-21T17:54:38.176Z,23.65
2022-08-21T17:57:24.362Z,23.65
2022-08-21T18:00:12.680Z,23.63
2022-08-21T18:03:01.867Z,23.62
2022-08-21T18:05:49.365Z,23.63
2022-08-21T18:08:35.283Z,23.61
2022-08-21T18:11:24.254Z,23.63
2022-08-21T18:14:10.904Z,23.62
2022-08-21T18:16:56.458Z,23.62
2022-08-21T18:19:48.859Z,23.62
2022-08-21T18:22:34.951Z,23.62
2022-08-21T18:25:20.850Z,23.61
2022-08-21T18:28:07.531Z,23.62
2022-08-21T18:30:54.594Z,23.62
2022-08-21T18:33:57.559Z,23.60
2022-08-21T18:36:44.150Z,23.56
2022-08-21T18:39:38.250Z,23.52
2022-08-21T18:42:28.561Z,23.51
2022-08-21T18:45:18.843Z,23.47
2022-08-21T18:48:09.447Z,23.43
2022-08-21T18:50:55.310Z,23.41
2022-08-21T18:53:40.939Z,23.40
2022-08-21T18:56:27.376Z,23.37
2022-08-21T18:59:14.163Z,23.36
2022-08-21T19:02:00.196Z,23.33
2022-08-21T19:04:48.021Z,23.34
2022-08-21T19:07:34.210Z,23.33
2022-08-21T19:13:28.417Z,23.28
2022-08-21T19:16:14.837Z,23.28
2022-08-21T19:19:02.051Z,23.27
2022-08-21T19:24:53.658Z,23.24
2022-08-21T19:27:40.088Z,23.27
2022-08-21T19:30:28.275Z,23.22
2022-08-21T19:33:23.221Z,23.21
2022-08-21T19:36:10.720Z,23.19
2022-08-21T19:38:56.879Z,23.17
2022-08-21T19:41:46.104Z,23.17
2022-08-21T19:44:37.969Z,23.17
2022-08-21T19:47:29.448Z,23.17
2022-08-21T19:50:18.078Z,23.13
2022-08-21T19:53:11.999Z,23.13
2022-08-21T19:55:59.061Z,23.12
2022-08-21T20:01:54.496Z,23.08
2022-08-21T20:07:46.407Z,23.06
2022-08-21T20:10:31.984Z,23.05
2022-08-21T20:13:22.166Z,23.06
2022-08-21T20:16:10.021Z,23.05
2022-08-21T20:18:55.962Z,23.02
2022-08-21T20:21:43.610Z,23.01
2022-08-21T20:24:30.392Z,22.99
2022-08-21T20:27:23.141Z,22.98
2022-08-21T20:30:09.784Z,22.98
2022-08-21T20:32:55.344Z,22.97
2022-08-21T20:35:41.347Z,22.96
2022-08-21T20:38:26.684Z,22.96
2022-08-21T20:41:21.414Z,22.96
2022-08-21T20:44:16.965Z,22.95
2022-08-21T20:47:09.013Z,22.91
2022-08-21T20:50:00.744Z,22.88
2022-08-21T20:52:52.355Z,22.87
2022-08-21T20:55:41.777Z,22.86
2022-08-21T20:58:42.171Z,22.84
2022-08-21T21:01:31.815Z,22.83
2022-08-21T21:04:26.217Z,22.84
2022-08-21T21:07:18.310Z,22.83
2022-08-21T21:10:11.159Z,22.82
2022-08-21T21:13:05.495Z,22.80
2022-08-21T21:15:56.352Z,22.78
2022-08-21T21:19:06.180Z,22.79
2022-08-21T21:22:03.099Z,22.77
2022-08-21T21:25:00.964Z,22.76
2022-08-21T21:27:54.147Z,22.76
2022-08-21T21:30:46.725Z,22.76
2022-08-21T21:33:32.382Z,22.74
2022-08-21T21:37:06.833Z,22.74
2022-08-21T21:40:35.186Z,22.72
2022-08-21T21:43:32.772Z,22.69
2022-08-21T21:46:33.577Z,22.70
2022-08-21T21:49:57.239Z,22.68
2022-08-21T21:52:55.387Z,22.67
2022-08-21T21:56:11.266Z,22.67
2022-08-21T21:59:06.351Z,22.63
2022-08-21T22:02:08.703Z,22.63
2022-08-21T22:05:22.131Z,22.63
2022-08-21T22:08:30.154Z,22.61
2022-08-21T22:11:29.508Z,22.60
2022-08-21T22:14:22.744Z,22.59
2022-08-21T22:17:27.959Z,22.62
2022-08-21T22:20:26.077Z,22.59
2022-08-21T22:23:19.552Z,22.55
2022-08-21T22:26:14.496Z,22.55
2022-08-21T22:29:05.555Z,22.54
2022-08-21T22:32:04.928Z,22.54
2022-08-21T22:35:15.505Z,22.55
2022-08-21T22:38:01.521Z,22.53
2022-08-21T22:40:47.142Z,22.50
2022-08-21T22:43:32.848Z,22.49
2022-08-21T22:46:27.320Z,22.49
2022-08-21T22:49:26.427Z,22.50
2022-08-21T22:52:29.346Z,22.50
2022-08-21T22:55:27.153Z,22.49
2022-08-21T22:58:25.122Z,22.48
2022-08-21T23:04:48.819Z,22.43
2022-08-21T23:07:44.400Z,22.46
2022-08-21T23:10:40.819Z,22.41
2022-08-21T23:13:30.303Z,22.42
2022-08-21T23:16:47.795Z,22.42
2022-08-21T23:20:12.830Z,22.41
2022-08-21T23:26:32.423Z,22.39
2022-08-21T23:29:26.184Z,22.36
2022-08-21T23:32:35.745Z,22.35
2022-08-21T23:36:10.304Z,22.36
2022-08-21T23:39:20.443Z,22.35
2022-08-21T23:42:12.109Z,22.33
2022-08-21T23:45:00.547Z,22.33
2022-08-21T23:48:11.186Z,22.31
2022-08-21T23:51:16.557Z,22.30
2022-08-21T23:54:22.591Z,22.29
2022-08-21T23:57:31.595Z,22.29
